sensor_id;sensor_type;location;lat;lon;timestamp;pressure;altitude;pressure_sealevel;temperature
76381;BMP280;65202;52.520;10.528;2023-07-29T00:00:49;100179.56;;;19.12
76381;BMP280;65202;52.520;10.528;2023-07-29T00:03:17;100178.72;;;19.07
76381;BMP280;65202;52.520;10.528;2023-07-29T00:05:44;100176.97;;;19.06
76381;BMP280;65202;52.520;10.528;2023-07-29T00:08:12;100181.97;;;18.67
76381;BMP280;65202;52.520;10.528;2023-07-29T00:10:39;100174.34;;;18.63
76381;BMP280;65202;52.520;10.528;2023-07-29T00:13:07;100175.22;;;18.72
76381;BMP280;65202;52.520;10.528;2023-07-29T00:15:34;100171.81;;;18.67
76381;BMP280;65202;52.520;10.528;2023-07-29T00:18:02;100170.91;;;18.47
76381;BMP280;65202;52.520;10.528;2023-07-29T00:20:29;100173.44;;;18.50
76381;BMP280;65202;52.520;10.528;2023-07-29T00:22:56;100175.25;;;18.87
76381;BMP280;65202;52.520;10.528;2023-07-29T00:25:25;100175.28;;;18.96
76381;BMP280;65202;52.520;10.528;2023-07-29T00:27:55;100179.50;;;19.01
76381;BMP280;65202;52.520;10.528;2023-07-29T00:30:25;100179.53;;;19.09
76381;BMP280;65202;52.520;10.528;2023-07-29T00:32:52;100174.50;;;19.12
76381;BMP280;65202;52.520;10.528;2023-07-29T00:35:19;100168.56;;;19.07
76381;BMP280;65202;52.520;10.528;2023-07-29T00:37:47;100171.03;;;19.02
76381;BMP280;65202;52.520;10.528;2023-07-29T00:40:20;100179.56;;;19.12
76381;BMP280;65202;52.520;10.528;2023-07-29T00:42:49;100179.50;;;19.03
76381;BMP280;65202;52.520;10.528;2023-07-29T00:45:20;100173.56;;;19.04
76381;BMP280;65202;52.520;10.528;2023-07-29T00:47:47;100178.66;;;19.01
76381;BMP280;65202;52.520;10.528;2023-07-29T00:50:15;100183.78;;;19.11
76381;BMP280;65202;52.520;10.528;2023-07-29T00:52:42;100179.53;;;19.16
76381;BMP280;65202;52.520;10.528;2023-07-29T00:55:10;100175.31;;;19.20
76381;BMP280;65202;52.520;10.528;2023-07-29T00:57:38;100179.53;;;19.07
76381;BMP280;65202;52.520;10.528;2023-07-29T01:00:07;100187.16;;;19.18
76381;BMP280;65202;52.520;10.528;2023-07-29T01:02:35;100180.41;;;19.20
76381;BMP280;65202;52.520;10.528;2023-07-29T01:05:03;100182.09;;;19.24
76381;BMP280;65202;52.520;10.528;2023-07-29T01:07:53;100177.84;;;19.32
76381;BMP280;65202;52.520;10.528;2023-07-29T01:13:33;100171.09;;;19.35
76381;BMP280;65202;52.520;10.528;2023-07-29T01:16:10;100159.25;;;19.42
76381;BMP280;65202;52.520;10.528;2023-07-29T01:18:47;100162.63;;;19.39
76381;BMP280;65202;52.520;10.528;2023-07-29T01:21:17;100161.78;;;19.34
76381;BMP280;65202;52.520;10.528;2023-07-29T01:23:46;100170.25;;;19.18
76381;BMP280;65202;52.520;10.528;2023-07-29T01:26:13;100158.41;;;19.31
76381;BMP280;65202;52.520;10.528;2023-07-29T01:28:40;100158.41;;;19.31
76381;BMP280;65202;52.520;10.528;2023-07-29T01:31:47;100149.97;;;19.26
76381;BMP280;65202;52.520;10.528;2023-07-29T01:34:28;100152.50;;;19.41
76381;BMP280;65202;52.520;10.528;2023-07-29T01:36:59;100152.47;;;19.30
76381;BMP280;65202;52.520;10.528;2023-07-29T01:39:34;100146.56;;;19.22
76381;BMP280;65202;52.520;10.528;2023-07-29T01:42:05;100149.97;;;19.26
76381;BMP280;65202;52.520;10.528;2023-07-29T01:44:33;100139.78;;;19.14
76381;BMP280;65202;52.520;10.528;2023-07-29T01:47:01;100141.50;;;19.13
76381;BMP280;65202;52.520;10.528;2023-07-29T01:49:28;100139.78;;;19.14
76381;BMP280;65202;52.520;10.528;2023-07-29T01:51:56;100129.66;;;19.11
76381;BMP280;65202;52.520;10.528;2023-07-29T01:54:23;100127.97;;;19.14
76381;BMP280;65202;52.520;10.528;2023-07-29T01:56:50;100147.38;;;19.03
76381;BMP280;65202;52.520;10.528;2023-07-29T01:59:18;100145.69;;;18.99
76381;BMP280;65202;52.520;10.528;2023-07-29T02:01:45;100140.63;;;19.11
76381;BMP280;65202;52.520;10.528;2023-07-29T02:04:13;100144.84;;;19.05
76381;BMP280;65202;52.520;10.528;2023-07-29T02:06:40;100146.53;;;19.06
76381;BMP280;65202;52.520;10.528;2023-07-29T02:09:07;100142.28;;;19.00
76381;BMP280;65202;52.520;10.528;2023-07-29T02:11:35;100143.16;;;18.92
76381;BMP280;65202;52.520;10.528;2023-07-29T02:14:02;100146.53;;;19.00
76381;BMP280;65202;52.520;10.528;2023-07-29T02:16:30;100143.16;;;19.01
76381;BMP280;65202;52.520;10.528;2023-07-29T02:18:57;100144.81;;;18.87
76381;BMP280;65202;52.520;10.528;2023-07-29T02:21:24;100138.91;;;18.84
76381;BMP280;65202;52.520;10.528;2023-07-29T02:23:51;100138.91;;;19.00
76381;BMP280;65202;52.520;10.528;2023-07-29T02:26:19;100138.06;;;19.01
76381;BMP280;65202;52.520;10.528;2023-07-29T02:28:46;100134.69;;;18.99
76381;BMP280;65202;52.520;10.528;2023-07-29T02:33:44;100137.19;;;18.93
76381;BMP280;65202;52.520;10.528;2023-07-29T02:36:12;100132.13;;;18.93
76381;BMP280;65202;52.520;10.528;2023-07-29T02:38:41;100139.75;;;18.78
76381;BMP280;65202;52.520;10.528;2023-07-29T02:41:09;100132.13;;;18.80
76381;BMP280;65202;52.520;10.528;2023-07-29T02:43:39;100127.91;;;18.95
76381;BMP280;65202;52.520;10.528;2023-07-29T02:46:08;100128.75;;;18.95
76381;BMP280;65202;52.520;10.528;2023-07-29T02:48:35;100121.16;;;18.97
76381;BMP280;65202;52.520;10.528;2023-07-29T02:51:02;100128.75;;;18.91
76381;BMP280;65202;52.520;10.528;2023-07-29T02:53:30;100129.63;;;18.96
76381;BMP280;65202;52.520;10.528;2023-07-29T02:55:57;100122.84;;;19.04
76381;BMP280;65202;52.520;10.528;2023-07-29T02:58:24;100129.63;;;18.96
76381;BMP280;65202;52.520;10.528;2023-07-29T03:00:53;100130.47;;;19.02
76381;BMP280;65202;52.520;10.528;2023-07-29T03:03:20;100138.91;;;18.95
76381;BMP280;65202;52.520;10.528;2023-07-29T03:05:48;100146.50;;;18.94
76381;BMP280;65202;52.520;10.528;2023-07-29T03:08:15;100142.28;;;18.87
76381;BMP280;65202;52.520;10.528;2023-07-29T03:10:42;100142.28;;;18.93
76381;BMP280;65202;52.520;10.528;2023-07-29T03:13:09;100130.44;;;18.96
76381;BMP280;65202;52.520;10.528;2023-07-29T03:15:37;100127.91;;;18.89
76381;BMP280;65202;52.520;10.528;2023-07-29T03:18:04;100134.66;;;18.81
76381;BMP280;65202;52.520;10.528;2023-07-29T03:20:32;100132.16;;;18.86
76381;BMP280;65202;52.520;10.528;2023-07-29T03:22:59;100121.16;;;18.97
76381;BMP280;65202;52.520;10.528;2023-07-29T03:25:26;100117.75;;;18.98
76381;BMP280;65202;52.520;10.528;2023-07-29T03:27:53;100115.25;;;19.02
76381;BMP280;65202;52.520;10.528;2023-07-29T03:30:21;100123.69;;;18.94
76381;BMP280;65202;52.520;10.528;2023-07-29T03:32:49;100127.91;;;19.02
76381;BMP280;65202;52.520;10.528;2023-07-29T03:35:17;100129.59;;;18.93
76381;BMP280;65202;52.520;10.528;2023-07-29T03:37:44;100127.91;;;18.83
76381;BMP280;65202;52.520;10.528;2023-07-29T03:40:11;100128.75;;;18.73
76381;BMP280;65202;52.520;10.528;2023-07-29T03:42:38;100121.97;;;18.75
76381;BMP280;65202;52.520;10.528;2023-07-29T03:45:06;100121.16;;;18.82
76381;BMP280;65202;52.520;10.528;2023-07-29T03:47:33;100122.84;;;18.92
76381;BMP280;65202;52.520;10.528;2023-07-29T03:50:01;100122.81;;;18.89
76381;BMP280;65202;52.520;10.528;2023-07-29T03:52:29;100126.22;;;18.94
76381;BMP280;65202;52.520;10.528;2023-07-29T03:54:56;100116.09;;;19.00
76381;BMP280;65202;52.520;10.528;2023-07-29T03:57:23;100111.84;;;18.97
76381;BMP280;65202;52.520;10.528;2023-07-29T03:59:50;100118.63;;;18.88
76381;BMP280;65202;52.520;10.528;2023-07-29T04:02:18;100111.84;;;19.00
76381;BMP280;65202;52.520;10.528;2023-07-29T04:04:45;100111.84;;;18.99
76381;BMP280;65202;52.520;10.528;2023-07-29T04:07:14;100104.25;;;19.05
76381;BMP280;65202;52.520;10.528;2023-07-29T04:09:42;100114.38;;;19.05
76381;BMP280;65202;52.520;10.528;2023-07-29T04:12:10;100111.88;;;19.02
76381;BMP280;65202;52.520;10.528;2023-07-29T04:14:38;100110.22;;;19.16
76381;BMP280;65202;52.520;10.528;2023-07-29T04:17:05;100108.47;;;19.03
76381;BMP280;65202;52.520;10.528;2023-07-29T04:19:32;100104.28;;;19.14
76381;BMP280;65202;52.520;10.528;2023-07-29T04:22:00;100100.84;;;18.94
76381;BMP280;65202;52.520;10.528;2023-07-29T04:24:27;100110.19;;;19.17
76381;BMP280;65202;52.520;10.528;2023-07-29T04:26:54;100116.13;;;19.12
76381;BMP280;65202;52.520;10.528;2023-07-29T04:29:22;100115.28;;;19.16
76381;BMP280;65202;52.520;10.528;2023-07-29T04:31:52;100126.25;;;19.09
76381;BMP280;65202;52.520;10.528;2023-07-29T04:34:20;100128.78;;;19.19
76381;BMP280;65202;52.520;10.528;2023-07-29T04:36:47;100127.97;;;19.16
76381;BMP280;65202;52.520;10.528;2023-07-29T04:39:15;100127.13;;;19.18
76381;BMP280;65202;52.520;10.528;2023-07-29T04:41:43;100127.97;;;19.32
76381;BMP280;65202;52.520;10.528;2023-07-29T04:44:10;100131.34;;;19.21
76381;BMP280;65202;52.520;10.528;2023-07-29T04:46:37;100129.66;;;19.20
76381;BMP280;65202;52.520;10.528;2023-07-29T04:49:05;100129.63;;;19.23
76381;BMP280;65202;52.520;10.528;2023-07-29T04:51:33;100116.97;;;19.18
76381;BMP280;65202;52.520;10.528;2023-07-29T04:54:00;100121.19;;;19.18
76381;BMP280;65202;52.520;10.528;2023-07-29T04:56:27;100117.78;;;19.22
76381;BMP280;65202;52.520;10.528;2023-07-29T04:58:54;100122.00;;;18.87
76381;BMP280;65202;52.520;10.528;2023-07-29T05:01:22;100108.53;;;19.12
76381;BMP280;65202;52.520;10.528;2023-07-29T05:03:49;100102.59;;;19.07
76381;BMP280;65202;52.520;10.528;2023-07-29T05:06:16;100101.75;;;19.18
76381;BMP280;65202;52.520;10.528;2023-07-29T05:08:43;100097.50;;;19.22
76381;BMP280;65202;52.520;10.528;2023-07-29T05:11:11;100090.75;;;19.21
76381;BMP280;65202;52.520;10.528;2023-07-29T05:13:38;100087.34;;;19.22
76381;BMP280;65202;52.520;10.528;2023-07-29T05:16:05;100074.66;;;19.32
76381;BMP280;65202;52.520;10.528;2023-07-29T05:18:33;100088.22;;;19.28
76381;BMP280;65202;52.520;10.528;2023-07-29T05:21:00;100086.50;;;19.05
76381;BMP280;65202;52.520;10.528;2023-07-29T05:23:27;100072.13;;;19.25
76381;BMP280;65202;52.520;10.528;2023-07-29T05:25:54;100075.50;;;19.24
76381;BMP280;65202;52.520;10.528;2023-07-29T05:28:22;100073.81;;;19.38
76381;BMP280;65202;52.520;10.528;2023-07-29T05:30:49;100088.19;;;19.19
76381;BMP280;65202;52.520;10.528;2023-07-29T05:33:16;100085.66;;;19.30
76381;BMP280;65202;52.520;10.528;2023-07-29T05:35:44;100076.34;;;19.32
76381;BMP280;65202;52.520;10.528;2023-07-29T05:38:11;100075.50;;;19.39
76381;BMP280;65202;52.520;10.528;2023-07-29T05:40:38;100080.56;;;19.03
76381;BMP280;65202;52.520;10.528;2023-07-29T05:43:05;100082.28;;;19.40
76381;BMP280;65202;52.520;10.528;2023-07-29T05:45:32;100085.63;;;19.48
76381;BMP280;65202;52.520;10.528;2023-07-29T05:48:00;100078.06;;;19.36
76381;BMP280;65202;52.520;10.528;2023-07-29T05:50:27;100086.44;;;19.66
76381;BMP280;65202;52.520;10.528;2023-07-29T05:52:54;100091.56;;;19.45
76381;BMP280;65202;52.520;10.528;2023-07-29T05:55:21;100083.03;;;19.65
76381;BMP280;65202;52.520;10.528;2023-07-29T05:57:48;100080.53;;;19.62
76381;BMP280;65202;52.520;10.528;2023-07-29T06:00:16;100090.69;;;19.60
76381;BMP280;65202;52.520;10.528;2023-07-29T06:02:43;100080.50;;;19.65
76381;BMP280;65202;52.520;10.528;2023-07-29T06:05:10;100095.78;;;19.49
76381;BMP280;65202;52.520;10.528;2023-07-29T06:07:38;100093.25;;;19.45
76381;BMP280;65202;52.520;10.528;2023-07-29T06:10:05;100097.47;;;19.44
76381;BMP280;65202;52.520;10.528;2023-07-29T06:12:33;100092.38;;;19.52
76381;BMP280;65202;52.520;10.528;2023-07-29T06:15:00;100094.91;;;19.53
76381;BMP280;65202;52.520;10.528;2023-07-29T06:17:27;100098.31;;;19.49
76381;BMP280;65202;52.520;10.528;2023-07-29T06:19:54;100094.09;;;19.47
76381;BMP280;65202;52.520;10.528;2023-07-29T06:22:22;100091.53;;;19.47
76381;BMP280;65202;52.520;10.528;2023-07-29T06:24:49;100099.19;;;19.41
76381;BMP280;65202;52.520;10.528;2023-07-29T06:27:16;100102.56;;;19.46
76381;BMP280;65202;52.520;10.528;2023-07-29T06:29:43;100106.81;;;19.42
76381;BMP280;65202;52.520;10.528;2023-07-29T06:32:11;100103.41;;;19.25
76381;BMP280;65202;52.520;10.528;2023-07-29T06:34:38;100111.03;;;19.33
76381;BMP280;65202;52.520;10.528;2023-07-29T06:37:05;100100.88;;;19.31
76381;BMP280;65202;52.520;10.528;2023-07-29T06:39:33;100102.56;;;19.49
76381;BMP280;65202;52.520;10.528;2023-07-29T06:42:01;100106.75;;;19.56
76381;BMP280;65202;52.520;10.528;2023-07-29T06:44:29;100116.06;;;19.51
76381;BMP280;65202;52.520;10.528;2023-07-29T06:46:57;100114.41;;;19.50
76381;BMP280;65202;52.520;10.528;2023-07-29T06:49:25;100113.56;;;19.37
76381;BMP280;65202;52.520;10.528;2023-07-29T06:51:52;100100.03;;;19.34
76381;BMP280;65202;52.520;10.528;2023-07-29T06:54:24;100097.50;;;19.25
76381;BMP280;65202;52.520;10.528;2023-07-29T06:56:53;100105.13;;;19.28
76381;BMP280;65202;52.520;10.528;2023-07-29T06:59:20;100100.88;;;19.33
76381;BMP280;65202;52.520;10.528;2023-07-29T07:01:47;100095.81;;;19.30
76381;BMP280;65202;52.520;10.528;2023-07-29T07:04:15;100101.72;;;19.15
76381;BMP280;65202;52.520;10.528;2023-07-29T07:06:42;100098.31;;;18.95
76381;BMP280;65202;52.520;10.528;2023-07-29T07:09:09;100091.59;;;19.11
76381;BMP280;65202;52.520;10.528;2023-07-29T07:11:36;100083.97;;;19.26
76381;BMP280;65202;52.520;10.528;2023-07-29T07:14:03;100085.66;;;19.25
76381;BMP280;65202;52.520;10.528;2023-07-29T07:16:31;100093.28;;;19.19
76381;BMP280;65202;52.520;10.528;2023-07-29T07:18:58;100097.50;;;19.28
76381;BMP280;65202;52.520;10.528;2023-07-29T07:21:25;100089.06;;;19.06
76381;BMP280;65202;52.520;10.528;2023-07-29T07:23:52;100091.59;;;19.06
76381;BMP280;65202;52.520;10.528;2023-07-29T07:26:20;100103.41;;;19.10
76381;BMP280;65202;52.520;10.528;2023-07-29T07:28:47;100110.19;;;19.25
76381;BMP280;65202;52.520;10.528;2023-07-29T07:31:14;100107.66;;;19.16
76381;BMP280;65202;52.520;10.528;2023-07-29T07:33:46;100118.66;;;19.37
76381;BMP280;65202;52.520;10.528;2023-07-29T07:36:14;100107.63;;;19.37
76381;BMP280;65202;52.520;10.528;2023-07-29T07:38:42;100101.69;;;19.48
76381;BMP280;65202;52.520;10.528;2023-07-29T07:41:09;100098.31;;;19.48
76381;BMP280;65202;52.520;10.528;2023-07-29T07:43:37;100099.16;;;19.47
76381;BMP280;65202;52.520;10.528;2023-07-29T07:46:04;100100.88;;;19.24
76381;BMP280;65202;52.520;10.528;2023-07-29T07:48:32;100102.56;;;19.46
76381;BMP280;65202;52.520;10.528;2023-07-29T07:51:00;100113.53;;;19.49
76381;BMP280;65202;52.520;10.528;2023-07-29T07:53:27;100100.00;;;19.58
76381;BMP280;65202;52.520;10.528;2023-07-29T07:55:54;100105.13;;;19.40
76381;BMP280;65202;52.520;10.528;2023-07-29T07:58:21;100106.78;;;19.50
76381;BMP280;65202;52.520;10.528;2023-07-29T08:00:49;100100.84;;;19.48
76381;BMP280;65202;52.520;10.528;2023-07-29T08:03:17;100097.47;;;19.55
76381;BMP280;65202;52.520;10.528;2023-07-29T08:05:45;100096.63;;;19.57
76381;BMP280;65202;52.520;10.528;2023-07-29T08:08:12;100090.69;;;19.62
76381;BMP280;65202;52.520;10.528;2023-07-29T08:10:39;100102.53;;;19.58
76381;BMP280;65202;52.520;10.528;2023-07-29T08:13:06;100094.94;;;19.41
76381;BMP280;65202;52.520;10.528;2023-07-29T08:15:33;100100.00;;;19.53
76381;BMP280;65202;52.520;10.528;2023-07-29T08:18:01;100085.63;;;19.03
76381;BMP280;65202;52.520;10.528;2023-07-29T08:20:28;100090.72;;;19.19
76381;BMP280;65202;52.520;10.528;2023-07-29T08:22:56;100089.88;;;19.34
76381;BMP280;65202;52.520;10.528;2023-07-29T08:25:23;100084.81;;;19.28
76381;BMP280;65202;52.520;10.528;2023-07-29T08:27:50;100081.41;;;19.38
76381;BMP280;65202;52.520;10.528;2023-07-29T08:30:17;100075.47;;;19.40
76381;BMP280;65202;52.520;10.528;2023-07-29T08:32:45;100064.50;;;19.47
76381;BMP280;65202;52.520;10.528;2023-07-29T08:35:13;100055.97;;;19.61
76381;BMP280;65202;52.520;10.528;2023-07-29T08:37:40;100044.16;;;19.49
76381;BMP280;65202;52.520;10.528;2023-07-29T08:40:08;100061.91;;;19.69
76381;BMP280;65202;52.520;10.528;2023-07-29T08:42:37;100062.72;;;19.64
76381;BMP280;65202;52.520;10.528;2023-07-29T08:45:07;100064.50;;;19.32
76381;BMP280;65202;52.520;10.528;2023-07-29T08:47:35;100063.53;;;19.79
76381;BMP280;65202;52.520;10.528;2023-07-29T08:50:03;100059.28;;;19.95
76381;BMP280;65202;52.520;10.528;2023-07-29T08:52:31;100060.78;;;20.30
76381;BMP280;65202;52.520;10.528;2023-07-29T08:54:59;100058.75;;;20.87
76381;BMP280;65202;52.520;10.528;2023-07-29T08:57:27;100059.69;;;20.74
76381;BMP280;65202;52.520;10.528;2023-07-29T08:59:55;100043.63;;;20.62
76381;BMP280;65202;52.520;10.528;2023-07-29T09:02:23;100049.38;;;20.90
76381;BMP280;65202;52.520;10.528;2023-07-29T09:04:50;100047.72;;;20.87
76381;BMP280;65202;52.520;10.528;2023-07-29T09:07:18;100053.72;;;20.80
76381;BMP280;65202;52.520;10.528;2023-07-29T09:09:47;100060.75;;;20.39
76381;BMP280;65202;52.520;10.528;2023-07-29T09:12:15;100049.53;;;20.73
76381;BMP280;65202;52.520;10.528;2023-07-29T09:14:42;100054.66;;;20.61
76381;BMP280;65202;52.520;10.528;2023-07-29T09:17:09;100052.84;;;20.84
76381;BMP280;65202;52.520;10.528;2023-07-29T09:19:38;100055.25;;;20.98
76381;BMP280;65202;52.520;10.528;2023-07-29T09:22:17;100054.31;;;21.10
76381;BMP280;65202;52.520;10.528;2023-07-29T09:24:46;100043.56;;;21.66
76381;BMP280;65202;52.520;10.528;2023-07-29T09:27:27;100033.63;;;22.13
76381;BMP280;65202;52.520;10.528;2023-07-29T09:29:55;100035.19;;;22.80
76381;BMP280;65202;52.520;10.528;2023-07-29T09:32:24;100030.75;;;22.91
76381;BMP280;65202;52.520;10.528;2023-07-29T09:34:52;100026.47;;;22.93
76381;BMP280;65202;52.520;10.528;2023-07-29T09:37:23;100027.16;;;22.51
76381;BMP280;65202;52.520;10.528;2023-07-29T09:39:50;100028.19;;;22.91
76381;BMP280;65202;52.520;10.528;2023-07-29T09:42:19;100024.00;;;22.87
76381;BMP280;65202;52.520;10.528;2023-07-29T09:44:49;100017.50;;;22.71
76381;BMP280;65202;52.520;10.528;2023-07-29T09:47:21;100012.28;;;22.76
76381;BMP280;65202;52.520;10.528;2023-07-29T09:49:50;100024.28;;;22.71
76381;BMP280;65202;52.520;10.528;2023-07-29T09:52:20;100036.88;;;22.24
76381;BMP280;65202;52.520;10.528;2023-07-29T09:54:49;100016.53;;;22.21
76381;BMP280;65202;52.520;10.528;2023-07-29T09:57:18;100020.00;;;22.14
76381;BMP280;65202;52.520;10.528;2023-07-29T09:59:55;100017.66;;;21.99
76381;BMP280;65202;52.520;10.528;2023-07-29T10:02:24;100018.66;;;21.88
76381;BMP280;65202;52.520;10.528;2023-07-29T10:04:55;100020.38;;;21.87
76381;BMP280;65202;52.520;10.528;2023-07-29T10:07:24;100025.44;;;21.90
76381;BMP280;65202;52.520;10.528;2023-07-29T10:09:52;100029.59;;;21.96
76381;BMP280;65202;52.520;10.528;2023-07-29T10:12:21;100021.34;;;21.76
76381;BMP280;65202;52.520;10.528;2023-07-29T10:14:49;100019.41;;;21.96
76381;BMP280;65202;52.520;10.528;2023-07-29T10:17:20;100010.91;;;21.97
76381;BMP280;65202;52.520;10.528;2023-07-29T10:19:48;100005.84;;;21.94
76381;BMP280;65202;52.520;10.528;2023-07-29T10:22:19;100004.00;;;22.03
76381;BMP280;65202;52.520;10.528;2023-07-29T10:24:48;100009.44;;;22.42
76381;BMP280;65202;52.520;10.528;2023-07-29T10:27:19;100012.66;;;22.53
76381;BMP280;65202;52.520;10.528;2023-07-29T10:29:47;100016.75;;;22.63
76381;BMP280;65202;52.520;10.528;2023-07-29T10:32:16;100018.44;;;22.64
76381;BMP280;65202;52.520;10.528;2023-07-29T10:34:43;100017.66;;;23.12
76381;BMP280;65202;52.520;10.528;2023-07-29T10:37:11;100012.28;;;23.27
76381;BMP280;65202;52.520;10.528;2023-07-29T10:39:39;100006.81;;;23.45
76381;BMP280;65202;52.520;10.528;2023-07-29T10:42:07;100008.00;;;23.71
76381;BMP280;65202;52.520;10.528;2023-07-29T10:47:13;99990.28;;;23.62
76381;BMP280;65202;52.520;10.528;2023-07-29T10:49:45;99989.94;;;23.38
76381;BMP280;65202;52.520;10.528;2023-07-29T10:52:16;99994.44;;;23.25
76381;BMP280;65202;52.520;10.528;2023-07-29T10:54:54;99995.88;;;22.91
76381;BMP280;65202;52.520;10.528;2023-07-29T10:57:35;99989.41;;;22.71
76381;BMP280;65202;52.520;10.528;2023-07-29T11:00:04;99982.66;;;22.67
76381;BMP280;65202;52.520;10.528;2023-07-29T11:02:35;99982.66;;;22.67
76381;BMP280;65202;52.520;10.528;2023-07-29T11:05:17;99975.50;;;22.87
76381;BMP280;65202;52.520;10.528;2023-07-29T11:07:46;99982.00;;;23.07
76381;BMP280;65202;52.520;10.528;2023-07-29T11:10:15;99972.16;;;23.75
76381;BMP280;65202;52.520;10.528;2023-07-29T11:12:50;99962.22;;;24.39
76381;BMP280;65202;52.520;10.528;2023-07-29T11:15:26;99968.00;;;24.09
76381;BMP280;65202;52.520;10.528;2023-07-29T11:18:00;99964.75;;;24.01
76381;BMP280;65202;52.520;10.528;2023-07-29T11:20:33;99975.47;;;23.80
76381;BMP280;65202;52.520;10.528;2023-07-29T11:23:02;99976.53;;;23.69
76381;BMP280;65202;52.520;10.528;2023-07-29T11:25:31;99981.28;;;23.45
76381;BMP280;65202;52.520;10.528;2023-07-29T11:28:00;99981.69;;;23.24
76381;BMP280;65202;52.520;10.528;2023-07-29T11:30:32;99977.13;;;23.39
76381;BMP280;65202;52.520;10.528;2023-07-29T11:33:01;99978.81;;;23.40
76381;BMP280;65202;52.520;10.528;2023-07-29T11:35:28;99962.34;;;23.95
76381;BMP280;65202;52.520;10.528;2023-07-29T11:37:55;99960.41;;;24.44
76381;BMP280;65202;52.520;10.528;2023-07-29T11:40:24;99958.75;;;24.40
76381;BMP280;65202;52.520;10.528;2023-07-29T11:42:52;99953.13;;;24.61
76381;BMP280;65202;52.520;10.528;2023-07-29T11:45:21;99958.94;;;25.00
76381;BMP280;65202;52.520;10.528;2023-07-29T11:47:55;99957.19;;;25.01
76381;BMP280;65202;52.520;10.528;2023-07-29T11:50:23;99953.97;;;25.26
76381;BMP280;65202;52.520;10.528;2023-07-29T11:52:50;99955.38;;;25.38
76381;BMP280;65202;52.520;10.528;2023-07-29T11:55:18;99949.75;;;25.25
76381;BMP280;65202;52.520;10.528;2023-07-29T11:57:51;99943.25;;;25.12
76381;BMP280;65202;52.520;10.528;2023-07-29T12:00:20;99943.34;;;24.76
76381;BMP280;65202;52.520;10.528;2023-07-29T12:02:49;99945.41;;;24.62
76381;BMP280;65202;52.520;10.528;2023-07-29T12:05:18;99927.63;;;24.58
76381;BMP280;65202;52.520;10.528;2023-07-29T12:07:48;99938.44;;;25.32
76381;BMP280;65202;52.520;10.528;2023-07-29T12:10:16;99945.47;;;24.92
76381;BMP280;65202;52.520;10.528;2023-07-29T12:12:46;99941.63;;;25.40
76381;BMP280;65202;52.520;10.528;2023-07-29T12:15:25;99959.56;;;25.40
76381;BMP280;65202;52.520;10.528;2023-07-29T12:17:57;99961.41;;;24.72
76381;BMP280;65202;52.520;10.528;2023-07-29T12:20:26;99964.16;;;24.64
76381;BMP280;65202;52.520;10.528;2023-07-29T12:22:57;99976.53;;;23.69
76381;BMP280;65202;52.520;10.528;2023-07-29T12:25:29;99964.69;;;24.42
76381;BMP280;65202;52.520;10.528;2023-07-29T12:28:03;99963.97;;;25.03
76381;BMP280;65202;52.520;10.528;2023-07-29T12:30:32;99964.59;;;25.43
76381;BMP280;65202;52.520;10.528;2023-07-29T12:32:59;99965.97;;;25.54
76381;BMP280;65202;52.520;10.528;2023-07-29T12:35:35;99955.06;;;25.48
76381;BMP280;65202;52.520;10.528;2023-07-29T12:38:03;99953.94;;;25.58
76381;BMP280;65202;52.520;10.528;2023-07-29T12:40:30;99963.63;;;25.47
76381;BMP280;65202;52.520;10.528;2023-07-29T12:42:57;99961.28;;;25.09
76381;BMP280;65202;52.520;10.528;2023-07-29T12:45:25;99972.59;;;24.99
76381;BMP280;65202;52.520;10.528;2023-07-29T12:47:56;99958.94;;;24.67
76381;BMP280;65202;52.520;10.528;2023-07-29T12:50:23;99965.34;;;24.50
76381;BMP280;65202;52.520;10.528;2023-07-29T12:52:50;99975.28;;;24.25
76381;BMP280;65202;52.520;10.528;2023-07-29T12:55:17;99982.31;;;23.78
76381;BMP280;65202;52.520;10.528;2023-07-29T12:57:50;99987.16;;;23.48
76381;BMP280;65202;52.520;10.528;2023-07-29T13:00:18;99988.53;;;23.22
76381;BMP280;65202;52.520;10.528;2023-07-29T13:02:45;99989.47;;;23.18
76381;BMP280;65202;52.520;10.528;2023-07-29T13:05:12;99987.56;;;23.27
76381;BMP280;65202;52.520;10.528;2023-07-29T13:07:40;99990.13;;;23.71
76381;BMP280;65202;52.520;10.528;2023-07-29T13:10:09;99987.22;;;23.89
76381;BMP280;65202;52.520;10.528;2023-07-29T13:12:37;99981.69;;;24.07
76381;BMP280;65202;52.520;10.528;2023-07-29T13:15:05;99971.56;;;24.40
76381;BMP280;65202;52.520;10.528;2023-07-29T13:17:34;99969.84;;;24.40
76381;BMP280;65202;52.520;10.528;2023-07-29T13:20:02;99974.66;;;24.54
76381;BMP280;65202;52.520;10.528;2023-07-29T13:22:29;99967.72;;;24.90
76381;BMP280;65202;52.520;10.528;2023-07-29T13:24:56;99972.16;;;24.84
76381;BMP280;65202;52.520;10.528;2023-07-29T13:27:23;99971.00;;;24.95
76381;BMP280;65202;52.520;10.528;2023-07-29T13:29:52;99969.78;;;25.10
76381;BMP280;65202;52.520;10.528;2023-07-29T13:32:19;99966.25;;;25.15
76381;BMP280;65202;52.520;10.528;2023-07-29T13:34:46;99962.25;;;25.05
76381;BMP280;65202;52.520;10.528;2023-07-29T13:37:14;99970.41;;;25.19
76381;BMP280;65202;52.520;10.528;2023-07-29T13:39:41;99970.41;;;25.19
76381;BMP280;65202;52.520;10.528;2023-07-29T13:42:08;99966.66;;;25.31
76381;BMP280;65202;52.520;10.528;2023-07-29T13:44:36;99963.06;;;25.36
76381;BMP280;65202;52.520;10.528;2023-07-29T13:47:03;99970.75;;;25.36
76381;BMP280;65202;52.520;10.528;2023-07-29T13:49:30;99979.56;;;25.58
76381;BMP280;65202;52.520;10.528;2023-07-29T13:51:58;99974.50;;;25.55
76381;BMP280;65202;52.520;10.528;2023-07-29T13:54:25;99979.31;;;25.03
76381;BMP280;65202;52.520;10.528;2023-07-29T13:56:52;99979.31;;;25.37
76381;BMP280;65202;52.520;10.528;2023-07-29T13:59:21;99984.69;;;25.58
76381;BMP280;65202;52.520;10.528;2023-07-29T14:01:48;99979.63;;;25.55